createdAt,value
2023-04-02T00:00:21.265Z,93459.31
2023-04-02T00:03:10.731Z,93459.31
2023-04-02T00:05:49.965Z,93461.69
2023-04-02T00:08:29.429Z,93467.63
2023-04-02T00:10:59.470Z,93470.22
2023-04-02T00:13:33.491Z,93465.63
2023-04-02T00:16:03.406Z,93465.63
2023-04-02T00:18:30.959Z,93461.00
2023-04-02T00:21:28.328Z,93465.88
2023-04-02T00:23:56.572Z,93460.22
2023-04-02T00:26:24.318Z,93463.84
2023-04-02T00:28:53.925Z,93465.69
2023-04-02T00:31:21.146Z,93467.50
2023-04-02T00:33:49.512Z,93463.84
2023-04-02T00:36:19.964Z,93464.63
2023-04-02T00:38:48.716Z,93460.22
2023-04-02T00:41:22.318Z,93469.53
2023-04-02T00:43:52.142Z,93462.53
2023-04-02T00:46:24.093Z,93468.47
2023-04-02T00:48:57.681Z,93459.66
2023-04-02T00:51:29.183Z,93464.06
2023-04-02T00:54:00.358Z,93456.03
2023-04-02T00:56:45.191Z,93465.31
2023-04-02T00:59:30.124Z,93466.66
2023-04-02T01:02:01.594Z,93468.28
2023-04-02T01:04:34.928Z,93475.84
2023-04-02T01:07:06.361Z,93470.94
2023-04-02T01:09:57.153Z,93466.81
2023-04-02T01:12:42.347Z,93472.56
2023-04-02T01:15:12.587Z,93472.56
2023-04-02T01:18:02.734Z,93475.69
2023-04-02T01:20:51.977Z,93483.16
2023-04-02T01:23:28.259Z,93488.34
2023-04-02T01:26:08.696Z,93482.44
2023-04-02T01:29:14.094Z,93486.25
2023-04-02T01:31:41.450Z,93485.50
2023-04-02T01:34:11.693Z,93482.91
2023-04-02T01:36:56.194Z,93494.50
2023-04-02T01:40:07.797Z,93489.59
2023-04-02T01:42:54.443Z,93495.06
2023-04-02T01:45:22.793Z,93492.00
2023-04-02T01:47:50.459Z,93505.19
2023-04-02T01:50:31.485Z,93503.94
2023-04-02T01:53:00.377Z,93497.25
2023-04-02T01:55:44.695Z,93504.03
2023-04-02T01:58:14.081Z,93495.31
2023-04-02T02:00:53.158Z,93504.56
2023-04-02T02:03:20.706Z,93508.41
2023-04-02T02:05:47.511Z,93492.72
2023-04-02T02:08:38.668Z,93503.75
2023-04-02T02:11:08.357Z,93509.19
2023-04-02T02:13:34.785Z,93509.75
2023-04-02T02:16:04.433Z,93510.03
2023-04-02T02:18:32.182Z,93518.56
2023-04-02T02:21:01.037Z,93513.19
2023-04-02T02:23:29.688Z,93519.06
2023-04-02T02:25:56.454Z,93517.25
2023-04-02T02:28:31.221Z,93485.16
2023-04-02T02:31:01.432Z,93526.44
2023-04-02T02:33:44.457Z,93529.81
2023-04-02T02:36:23.096Z,93521.56
2023-04-02T02:39:00.994Z,93534.91
2023-04-02T02:41:46.795Z,93530.25
2023-04-02T02:44:20.866Z,93541.56
2023-04-02T02:47:19.542Z,93540.53
2023-04-02T02:49:50.529Z,93542.81
2023-04-02T02:52:26.745Z,93543.59
2023-04-02T02:55:18.397Z,93543.34
2023-04-02T02:58:06.927Z,93551.84
2023-04-02T03:00:40.941Z,93560.66
2023-04-02T03:03:14.447Z,93556.28
2023-04-02T03:05:41.798Z,93556.53
2023-04-02T03:08:37.074Z,93560.66
2023-04-02T03:11:26.686Z,93571.78
2023-04-02T03:14:00.868Z,93571.56
2023-04-02T03:16:34.824Z,93572.13
2023-04-02T03:19:04.272Z,93572.13
2023-04-02T03:21:42.886Z,93578.34
2023-04-02T03:24:19.707Z,93574.78
2023-04-02T03:26:55.245Z,93583.03
2023-04-02T03:29:30.701Z,93580.75
2023-04-02T03:32:06.041Z,93586.66
2023-04-02T03:34:42.750Z,93586.72
2023-04-02T03:37:17.338Z,93586.81
2023-04-02T03:39:51.219Z,93587.34
2023-04-02T03:42:26.349Z,93585.84
2023-04-02T03:45:03.305Z,93599.25
2023-04-02T03:47:36.355Z,93599.25
2023-04-02T03:50:27.772Z,93595.59
2023-04-02T03:53:04.678Z,93602.63
2023-04-02T03:55:35.499Z,93605.41
2023-04-02T03:58:16.486Z,93608.50
2023-04-02T04:00:59.553Z,93610.56
2023-04-02T04:03:36.812Z,93612.59
2023-04-02T04:06:10.479Z,93622.47
2023-04-02T04:08:50.338Z,93625.28
2023-04-02T04:11:22.723Z,93626.06
2023-04-02T04:13:54.438Z,93633.81
2023-04-02T04:16:32.385Z,93639.00
2023-04-02T04:19:14.868Z,93627.63
2023-04-02T04:21:45.084Z,93628.63
2023-04-02T04:24:24.083Z,93635.69
2023-04-02T04:27:17.100Z,93636.44
2023-04-02T04:29:54.137Z,93638.53
2023-04-02T04:32:32.036Z,93643.72
2023-04-02T04:35:22.550Z,93647.84
2023-04-02T04:37:59.159Z,93646.31
2023-04-02T04:40:32.416Z,93652.50
2023-04-02T04:43:12.404Z,93654.59
2023-04-02T04:45:51.656Z,93662.66
2023-04-02T04:48:36.322Z,93665.03
2023-04-02T04:51:19.401Z,93665.84
2023-04-02T04:53:48.358Z,93665.09
2023-04-02T04:56:21.467Z,93667.66
2023-04-02T04:59:20.471Z,93674.38
2023-04-02T05:02:06.848Z,93679.28
2023-04-02T05:04:40.200Z,93681.03
2023-04-02T05:07:29.347Z,93685.66
2023-04-02T05:10:02.059Z,93690.56
2023-04-02T05:13:01.855Z,93686.38
2023-04-02T05:15:43.716Z,93696.47
2023-04-02T05:18:20.957Z,93694.34
2023-04-02T05:21:00.267Z,93690.94
2023-04-02T05:23:51.305Z,93701.50
2023-04-02T05:26:29.650Z,93702.47
2023-04-02T05:29:07.673Z,93706.06
2023-04-02T05:31:45.413Z,93703.19
2023-04-02T05:34:14.549Z,93708.88
2023-04-02T05:36:41.130Z,93714.25
2023-04-02T05:39:11.208Z,93712.97
2023-04-02T05:41:47.546Z,93713.16
2023-04-02T05:44:34.101Z,93720.13
2023-04-02T05:47:23.060Z,93721.09
2023-04-02T05:50:16.972Z,93726.47
2023-04-02T05:52:52.040Z,93719.75
2023-04-02T05:55:19.518Z,93730.13
2023-04-02T05:58:10.434Z,93724.16
2023-04-02T06:00:39.938Z,93733.97
2023-04-02T06:03:28.482Z,93739.66
2023-04-02T06:06:01.174Z,93744.84
2023-04-02T06:08:36.279Z,93746.66
2023-04-02T06:11:11.544Z,93752.31
2023-04-02T06:13:40.359Z,93750.72
2023-04-02T06:16:10.058Z,93759.47
2023-04-02T06:18:36.914Z,93753.81
2023-04-02T06:21:05.399Z,93763.06
2023-04-02T06:24:02.419Z,93763.53
2023-04-02T06:26:37.968Z,93765.28
2023-04-02T06:29:17.959Z,93765.03
2023-04-02T06:31:58.836Z,93770.13
2023-04-02T06:34:28.450Z,93774.94
2023-04-02T06:37:27.293Z,93777.50
2023-04-02T06:40:00.907Z,93778.75
2023-04-02T06:42:36.457Z,93783.41
2023-04-02T06:45:29.763Z,93783.88
2023-04-02T06:48:31.615Z,93793.41
2023-04-02T06:51:04.227Z,93796.97
2023-04-02T06:53:44.076Z,93803.69
2023-04-02T06:56:32.226Z,93807.53
2023-04-02T06:58:59.798Z,93823.09
2023-04-02T07:01:30.736Z,93822.06
2023-04-02T07:03:59.339Z,93827.47
2023-04-02T07:06:45.412Z,93832.84
2023-04-02T07:09:13.822Z,93831.00
2023-04-02T07:11:45.993Z,93837.28
2023-04-02T07:14:13.559Z,93836.50
2023-04-02T07:16:42.710Z,93836.97
2023-04-02T07:19:21.171Z,93851.50
2023-04-02T07:21:50.476Z,93850.94
2023-04-02T07:24:18.983Z,93849.38
2023-04-02T07:26:48.063Z,93853.78
2023-04-02T07:29:16.149Z,93854.84
2023-04-02T07:31:42.971Z,93865.22
2023-04-02T07:34:10.218Z,93858.97
2023-04-02T07:36:36.782Z,93859.81
2023-04-02T07:39:03.913Z,93861.63
2023-04-02T07:41:30.339Z,93861.63
2023-04-02T07:43:56.754Z,93871.22
2023-04-02T07:46:23.411Z,93862.13
2023-04-02T07:48:49.873Z,93859.69
2023-04-02T07:51:18.179Z,93872.53
2023-04-02T07:53:45.322Z,93880.03
2023-04-02T07:56:17.986Z,93871.94
2023-04-02T07:58:44.778Z,93876.03
2023-04-02T08:01:21.154Z,93882.97
2023-04-02T08:03:47.939Z,93880.72
2023-04-02T08:06:14.485Z,93879.84
2023-04-02T08:08:41.148Z,93883.28
2023-04-02T08:11:08.555Z,93889.91
2023-04-02T08:13:35.675Z,93890.13
2023-04-02T08:16:03.254Z,93895.72
2023-04-02T08:18:30.394Z,93893.25
2023-04-02T08:20:57.240Z,93891.56
2023-04-02T08:23:24.253Z,93911.91
2023-04-02T08:25:51.384Z,93909.50
2023-04-02T08:28:17.822Z,93914.09
2023-04-02T08:30:44.491Z,93916.72
2023-04-02T08:33:11.435Z,93914.06
2023-04-02T08:35:38.076Z,93916.47
2023-04-02T08:38:04.771Z,93923.69
2023-04-02T08:40:35.738Z,93918.97
2023-04-02T08:43:39.035Z,93932.09
2023-04-02T08:46:09.407Z,93930.63
2023-04-02T08:48:42.601Z,93935.56
2023-04-02T08:51:22.593Z,93939.75
2023-04-02T08:53:50.341Z,93935.44
2023-04-02T08:56:27.468Z,93936.25
2023-04-02T08:58:56.416Z,93943.78
2023-04-02T09:01:49.529Z,93949.59
2023-04-02T09:04:23.215Z,93946.63
2023-04-02T09:06:53.539Z,93948.00
2023-04-02T09:09:22.143Z,93951.75
2023-04-02T09:12:28.736Z,93952.81
2023-04-02T09:15:20.592Z,93953.88
2023-04-02T09:17:54.246Z,93958.88
2023-04-02T09:20:27.669Z,93962.31
2023-04-02T09:22:56.135Z,93962.31
2023-04-02T09:25:32.280Z,93970.78
2023-04-02T09:28:04.979Z,93974.50
2023-04-02T09:30:31.672Z,93979.59
2023-04-02T09:33:07.517Z,93982.19
2023-04-02T09:35:54.941Z,93985.28
2023-04-02T09:38:31.410Z,93984.69
2023-04-02T09:41:18.522Z,93987.72
2023-04-02T09:43:45.119Z,93993.19
2023-04-02T09:46:24.141Z,93997.81
2023-04-02T09:48:58.133Z,94005.06
2023-04-02T09:51:28.106Z,94003.81
2023-04-02T09:54:03.403Z,94004.59
2023-04-02T09:56:37.329Z,94003.34
2023-04-02T09:59:06.693Z,94004.72
2023-04-02T10:01:35.861Z,94011.66
2023-04-02T10:04:04.811Z,94015.81
2023-04-02T10:06:33.482Z,94020.03
2023-04-02T10:09:30.672Z,94022.91
2023-04-02T10:11:58.342Z,94026.97
2023-04-02T10:14:35.378Z,94015.94
2023-04-02T10:17:13.505Z,94024.25
2023-04-02T10:19:47.238Z,94028.88
2023-04-02T10:22:17.612Z,94022.91
2023-04-02T10:24:44.266Z,94026.28
2023-04-02T10:27:26.618Z,94028.13
2023-04-02T10:30:19.851Z,94031.38
2023-04-02T10:33:01.038Z,94028.88
2023-04-02T10:35:36.615Z,94030.47
2023-04-02T10:38:20.480Z,94032.38
2023-04-02T10:41:00.557Z,94036.44
2023-04-02T10:43:47.252Z,94037.09
2023-04-02T10:46:35.468Z,94040.91
2023-04-02T10:49:24.750Z,94035.50
2023-04-02T10:52:05.241Z,94046.59
2023-04-02T10:54:49.644Z,94039.41
2023-04-02T10:57:38.025Z,94048.44
2023-04-02T11:00:20.969Z,94053.25
2023-04-02T11:03:02.745Z,94051.69
2023-04-02T11:05:44.088Z,94054.13
2023-04-02T11:08:20.099Z,94055.25
2023-04-02T11:10:51.099Z,94049.41
2023-04-02T11:13:56.131Z,94059.38
2023-04-02T11:16:23.476Z,94059.53
2023-04-02T11:19:10.385Z,94065.06
2023-04-02T11:21:51.089Z,94066.88
2023-04-02T11:24:31.530Z,94068.13
2023-04-02T11:27:10.225Z,94065.75
2023-04-02T11:29:49.989Z,94077.34
2023-04-02T11:32:24.971Z,94074.72
2023-04-02T11:35:05.121Z,94078.41
2023-04-02T11:37:45.674Z,94075.66
2023-04-02T11:40:12.119Z,94089.78
2023-04-02T11:42:49.131Z,94086.97
2023-04-02T11:45:25.958Z,94100.41
2023-04-02T11:48:01.424Z,94098.91
2023-04-02T11:50:31.736Z,94106.56
2023-04-02T11:53:02.643Z,94103.94
2023-04-02T11:55:34.404Z,94097.22
2023-04-02T11:58:26.053Z,94103.53
2023-04-02T12:01:11.712Z,94107.63
2023-04-02T12:04:17.242Z,94113.00
2023-04-02T12:06:49.710Z,94109.63
2023-04-02T12:09:27.894Z,94113.00
2023-04-02T12:12:15.551Z,94109.75
2023-04-02T12:14:47.073Z,94109.75
2023-04-02T12:17:30.513Z,94108.22
2023-04-02T12:20:22.612Z,94118.22
2023-04-02T12:22:52.389Z,94118.06
2023-04-02T12:25:18.740Z,94115.56
2023-04-02T12:27:48.100Z,94120.13
2023-04-02T12:30:23.093Z,94121.44
2023-04-02T12:32:50.321Z,94120.88
2023-04-02T12:35:36.378Z,94123.59
2023-04-02T12:38:02.850Z,94130.78
2023-04-02T12:40:29.244Z,94126.13
2023-04-02T12:42:55.956Z,94125.66
2023-04-02T12:45:25.690Z,94134.94
2023-04-02T12:47:53.715Z,94129.00
2023-04-02T12:50:22.226Z,94122.91
2023-04-02T12:52:54.996Z,94130.84
2023-04-02T12:55:24.298Z,94134.03
2023-04-02T12:57:59.322Z,94134.66
2023-04-02T13:00:25.754Z,94142.81
2023-04-02T13:03:16.851Z,94134.44
2023-04-02T13:06:04.087Z,94144.25
2023-04-02T13:08:41.698Z,94140.13
2023-04-02T13:11:08.256Z,94141.00
2023-04-02T13:13:37.627Z,94138.03
2023-04-02T13:16:09.997Z,94141.00
2023-04-02T13:18:38.221Z,94139.00
2023-04-02T13:21:28.875Z,94147.09
2023-04-02T13:23:55.596Z,94147.09
2023-04-02T13:26:24.554Z,94149.22
2023-04-02T13:29:09.372Z,94156.75
2023-04-02T13:31:35.895Z,94150.00
2023-04-02T13:34:02.384Z,94155.50
2023-04-02T13:36:29.464Z,94152.22
2023-04-02T13:38:56.376Z,94157.53
2023-04-02T13:41:26.371Z,94159.25
2023-04-02T13:44:00.221Z,94158.50
2023-04-02T13:46:29.346Z,94163.91
2023-04-02T13:48:56.769Z,94160.34
2023-04-02T13:51:44.600Z,94160.81
2023-04-02T13:54:35.808Z,94171.41
2023-04-02T13:57:02.384Z,94172.06
2023-04-02T13:59:28.936Z,94171.84
2023-04-02T14:01:59.427Z,94169.03
2023-04-02T14:04:33.247Z,94177.31
2023-04-02T14:07:21.598Z,94178.31
2023-04-02T14:10:14.803Z,94176.97
2023-04-02T14:13:02.631Z,94178.34
2023-04-02T14:15:52.654Z,94188.78
2023-04-02T14:18:36.524Z,94185.63
2023-04-02T14:21:27.583Z,94188.41
2023-04-02T14:23:56.768Z,94194.00
2023-04-02T14:26:32.749Z,94197.06
2023-04-02T14:29:11.333Z,94197.34
2023-04-02T14:32:02.530Z,94203.84
2023-04-02T14:34:42.847Z,94204.13
2023-04-02T14:37:20.778Z,94213.59
2023-04-02T14:40:08.829Z,94205.81
2023-04-02T14:42:51.987Z,94209.00
2023-04-02T14:45:27.171Z,94217.00
2023-04-02T14:48:01.091Z,94222.44
2023-04-02T14:50:37.397Z,94217.00
2023-04-02T14:53:23.964Z,94221.78
2023-04-02T14:55:52.631Z,94225.59
2023-04-02T14:58:25.967Z,94228.63
2023-04-02T15:01:02.695Z,94233.75
2023-04-02T15:03:37.450Z,94242.19
2023-04-02T15:06:11.940Z,94232.34
2023-04-02T15:08:46.788Z,94239.94
2023-04-02T15:11:33.084Z,94242.03
2023-04-02T15:14:06.807Z,94246.81
2023-04-02T15:16:36.204Z,94250.31
2023-04-02T15:19:11.057Z,94256.59
2023-04-02T15:21:55.761Z,94257.78
2023-04-02T15:24:37.853Z,94263.59
2023-04-02T15:27:31.490Z,94267.31
2023-04-02T15:30:12.331Z,94271.00
2023-04-02T15:32:40.553Z,94259.91
2023-04-02T15:35:21.655Z,94275.31
2023-04-02T15:38:18.923Z,94279.22
2023-04-02T15:40:54.776Z,94279.53
2023-04-02T15:43:42.351Z,94282.97
2023-04-02T15:46:23.849Z,94286.41
2023-04-02T15:48:59.257Z,94291.94
2023-04-02T15:51:26.415Z,94289.16
2023-04-02T15:54:26.941Z,94290.00
2023-04-02T15:57:11.948Z,94294.50
2023-04-02T16:00:23.356Z,94305.38
2023-04-02T16:03:18.602Z,94310.88
2023-04-02T16:06:10.575Z,94301.59
2023-04-02T16:09:07.948Z,94312.03
2023-04-02T16:11:34.835Z,94320.59
2023-04-02T16:14:16.572Z,94326.31
2023-04-02T16:16:46.552Z,94323.22
2023-04-02T16:19:35.694Z,94328.16
2023-04-02T16:22:28.860Z,94331.56
2023-04-02T16:25:16.266Z,94335.50
2023-04-02T16:27:52.216Z,94344.09
2023-04-02T16:30:27.772Z,94344.63
2023-04-02T16:33:00.399Z,94360.72
2023-04-02T16:35:53.894Z,94371.06
2023-04-02T16:38:39.139Z,94358.66
2023-04-02T16:41:18.687Z,94361.81
2023-04-02T16:43:51.179Z,94378.66
2023-04-02T16:46:39.309Z,94379.97
2023-04-02T16:49:14.859Z,94390.31
2023-04-02T16:51:52.811Z,94386.44
2023-04-02T16:54:35.946Z,94392.94
2023-04-02T16:57:20.428Z,94396.53
2023-04-02T16:59:53.277Z,94399.41
2023-04-02T17:02:46.720Z,94402.25
2023-04-02T17:05:33.945Z,94404.31
2023-04-02T17:08:08.657Z,94408.22
2023-04-02T17:10:48.941Z,94407.69
2023-04-02T17:13:21.373Z,94413.94
2023-04-02T17:16:03.239Z,94420.38
2023-04-02T17:18:30.931Z,94429.72
2023-04-02T17:21:03.704Z,94430.75
2023-04-02T17:23:31.913Z,94427.66
2023-04-02T17:26:05.765Z,94439.06
2023-04-02T17:28:37.274Z,94442.16
2023-04-02T17:31:15.477Z,94445.25
2023-04-02T17:33:41.958Z,94442.69
2023-04-02T17:36:38.111Z,94452.75
2023-04-02T17:39:25.613Z,94459.00
2023-04-02T17:42:19.229Z,94461.31
2023-04-02T17:44:48.645Z,94466.50
2023-04-02T17:47:21.330Z,94468.06
2023-04-02T17:50:29.083Z,94467.00
2023-04-02T17:53:08.276Z,94472.69
2023-04-02T17:55:47.168Z,94483.03
2023-04-02T17:58:39.929Z,94478.09
2023-04-02T18:01:25.217Z,94476.81
2023-04-02T18:04:16.675Z,94485.09
2023-04-02T18:06:58.032Z,94495.16
2023-04-02T18:09:42.738Z,94501.34
2023-04-02T18:12:31.906Z,94504.69
2023-04-02T18:15:28.254Z,94504.69
2023-04-02T18:18:30.685Z,94512.41
2023-04-02T18:21:23.376Z,94517.00
2023-04-02T18:24:26.781Z,94521.88
2023-04-02T18:27:27.636Z,94536.59
2023-04-02T18:29:58.133Z,94541.22
2023-04-02T18:32:50.820Z,94547.38
2023-04-02T18:35:47.245Z,94550.72
2023-04-02T18:38:36.058Z,94559.19
2023-04-02T18:41:08.528Z,94563.03
2023-04-02T18:43:46.937Z,94570.75
2023-04-02T18:46:48.894Z,94571.00
2023-04-02T18:49:23.375Z,94576.69
2023-04-02T18:51:54.550Z,94581.34
2023-04-02T18:54:42.310Z,94589.03
2023-04-02T18:57:13.615Z,94595.25
2023-04-02T18:59:42.936Z,94603.72
2023-04-02T19:02:40.390Z,94613.22
2023-04-02T19:05:25.204Z,94609.31
2023-04-02T19:07:59.140Z,94610.56
2023-04-02T19:10:46.248Z,94618.75
2023-04-02T19:13:18.657Z,94627.25
2023-04-02T19:15:54.259Z,94624.63
2023-04-02T19:18:54.937Z,94631.53
2023-04-02T19:21:46.006Z,94635.13
2023-04-02T19:24:24.544Z,94644.72
2023-04-02T19:27:01.522Z,94639.75
2023-04-02T19:29:40.431Z,94650.09
2023-04-02T19:32:40.702Z,94643.78
2023-04-02T19:35:36.660Z,94651.78
2023-04-02T19:38:15.314Z,94659.19
2023-04-02T19:41:07.086Z,94655.50
2023-04-02T19:43:33.594Z,94658.09
2023-04-02T19:46:02.384Z,94663.72
2023-04-02T19:48:44.432Z,94657.50
2023-04-02T19:51:10.921Z,94674.94
2023-04-02T19:53:37.475Z,94675.44
2023-04-02T19:56:04.103Z,94676.22
2023-04-02T19:58:32.736Z,94678.00
2023-04-02T20:00:59.662Z,94680.06
2023-04-02T20:03:26.529Z,94682.56
2023-04-02T20:05:53.395Z,94684.00
2023-04-02T20:08:20.639Z,94676.50
2023-04-02T20:10:47.032Z,94680.63
2023-04-02T20:13:13.486Z,94686.81
2023-04-02T20:15:40.956Z,94688.38
2023-04-02T20:18:07.893Z,94692.78
2023-04-02T20:20:34.614Z,94695.34
2023-04-02T20:23:01.580Z,94701.50
2023-04-02T20:25:28.003Z,94703.78
2023-04-02T20:27:54.414Z,94703.88
2023-04-02T20:30:20.892Z,94715.28
2023-04-02T20:32:47.475Z,94711.84
2023-04-02T20:35:14.024Z,94718.03
2023-04-02T20:37:41.828Z,94728.59
2023-04-02T20:40:09.891Z,94717.47
2023-04-02T20:42:36.330Z,94717.94
2023-04-02T20:45:05.067Z,94735.84
2023-04-02T20:47:31.734Z,94736.63
2023-04-02T20:49:58.132Z,94735.00
2023-04-02T20:52:24.575Z,94737.03
2023-04-02T20:54:50.977Z,94738.28
2023-04-02T20:57:19.484Z,94741.34
2023-04-02T20:59:45.926Z,94749.75
2023-04-02T21:02:12.363Z,94758.28
2023-04-02T21:04:38.777Z,94757.25
2023-04-02T21:07:05.305Z,94760.13
2023-04-02T21:09:32.018Z,94762.16
2023-04-02T21:11:58.955Z,94759.78
2023-04-02T21:14:26.100Z,94774.19
2023-04-02T21:16:52.583Z,94772.66
2023-04-02T21:19:18.992Z,94766.00
2023-04-02T21:21:45.532Z,94768.91
2023-04-02T21:24:11.958Z,94768.38
2023-04-02T21:26:40.146Z,94773.75
2023-04-02T21:29:07.047Z,94774.19
2023-04-02T21:31:38.717Z,94777.16
2023-04-02T21:34:06.775Z,94778.34
2023-04-02T21:36:36.092Z,94783.03
2023-04-02T21:39:05.973Z,94776.84
2023-04-02T21:41:35.181Z,94777.88
2023-04-02T21:44:03.525Z,94778.09
2023-04-02T21:46:31.656Z,94771.84
2023-04-02T21:48:59.769Z,94782.94
2023-04-02T21:51:29.062Z,94789.34
2023-04-02T21:53:56.134Z,94789.34
2023-04-02T21:56:28.559Z,94786.22
2023-04-02T21:59:01.748Z,94791.81
2023-04-02T22:01:31.136Z,94788.16
2023-04-02T22:04:00.685Z,94777.44
2023-04-02T22:06:29.736Z,94797.13
2023-04-02T22:08:58.907Z,94796.69
2023-04-02T22:11:29.524Z,94797.91
2023-04-02T22:13:56.226Z,94803.53
2023-04-02T22:16:25.251Z,94796.19
2023-04-02T22:18:53.312Z,94795.81
2023-04-02T22:21:20.778Z,94800.25
2023-04-02T22:23:48.324Z,94803.38
2023-04-02T22:26:16.178Z,94806.19
2023-04-02T22:28:42.625Z,94800.38
2023-04-02T22:31:12.401Z,94809.28
2023-04-02T22:33:39.252Z,94804.56
2023-04-02T22:36:06.030Z,94804.81
2023-04-02T22:38:33.615Z,94808.19
2023-04-02T22:41:11.164Z,94820.28
2023-04-02T22:43:39.043Z,94814.66
2023-04-02T22:46:07.832Z,94817.25
2023-04-02T22:48:35.470Z,94815.34
2023-04-02T22:51:02.551Z,94821.81
2023-04-02T22:53:29.463Z,94822.31
2023-04-02T22:56:01.722Z,94832.28
2023-04-02T22:58:28.152Z,94825.00
2023-04-02T23:00:54.541Z,94825.56
2023-04-02T23:03:21.437Z,94831.03
2023-04-02T23:05:58.849Z,94822.19
2023-04-02T23:08:25.534Z,94828.91
2023-04-02T23:10:51.974Z,94830.50
2023-04-02T23:13:18.438Z,94830.50
2023-04-02T23:15:44.898Z,94836.63
2023-04-02T23:18:11.455Z,94837.63
2023-04-02T23:20:38.095Z,94836.09
2023-04-02T23:23:04.743Z,94836.09
2023-04-02T23:25:31.176Z,94838.88
2023-04-02T23:27:57.593Z,94838.09
2023-04-02T23:30:23.986Z,94840.66
2023-04-02T23:32:50.704Z,94838.09
2023-04-02T23:35:17.128Z,94843.72
2023-04-02T23:37:43.522Z,94841.59
2023-04-02T23:40:10.301Z,94834.44
2023-04-02T23:42:36.704Z,94836.31
2023-04-02T23:45:03.259Z,94836.09
2023-04-02T23:47:29.732Z,94831.41
2023-04-02T23:49:56.223Z,94838.09
2023-04-02T23:52:22.633Z,94833.97
2023-04-02T23:54:49.046Z,94832.50
2023-04-02T23:57:17.202Z,94833.28
2023-04-02T23:59:43.626Z,94831.25
